
<gpx xmlns="http://www.topografix.com/GPX/1/1" xmlns:gpxx="http://www.garmin.com/xmlschemas/GpxExtensions/v3" xmlns:xsi="http://www.w3.org/2001/XMLSchema-instance" version="1.1" creator="Adze - http://kobotsw.com/apps/adze" xsi:schemaLocation="http://www.topografix.com/GPX/1/1 http://www.topografix.com/GPX/1/1/gpx.xsd http://www.garmin.com/xmlschemas/GpxExtensions/v3 http://www.garmin.com/xmlschemas/GpxExtensionsv3.xsd">
    <metadata>
        <name>Untitled Document</name>
        <link href="http://www.garmin.com"></link>
        <time>2018-02-26T06:41:05.973Z</time>
    </metadata>
    <wpt lon="99.889427" lat="12.705905">
        <ele>72.000000</ele>
        <name>Imperial</name>
        <cmt>26-AUG-11 15:49:46</cmt>
        <desc>26-AUG-11 15:49:46</desc>
        <sym>Lodging</sym>
        <extensions>
            <gpxx:WaypointExtension xmlns:gpxx="http://www.garmin.com/xmlschemas/GpxExtensions/v3">
                <gpxx:DisplayMode>SymbolOnly</gpxx:DisplayMode>
            </gpxx:WaypointExtension>
        </extensions>
    </wpt>
    <wpt lon="99.850163" lat="12.720923">
        <ele>101.000000</ele>
        <time>2014-09-27T07:16:59Z</time>
        <name>Water Saturday 1</name>
        <sym>Drinking Water</sym>
        <extensions>
            <gpxx:WaypointExtension xmlns:gpxx="http://www.garmin.com/xmlschemas/GpxExtensions/v3">
                <gpxx:DisplayMode>SymbolOnly</gpxx:DisplayMode>
            </gpxx:WaypointExtension>
        </extensions>
    </wpt>
    <trk>
        <name>Saturday</name>
        <extensions>
            <gpxx:TrackExtension xmlns:gpxx="http://www.garmin.com/xmlschemas/GpxExtensions/v3">
                <gpxx:DisplayColor>Red</gpxx:DisplayColor>
            </gpxx:TrackExtension>
        </extensions>
        <trkseg>
            <trkpt lon="99.889608" lat="12.706013">
                <ele>75.600000</ele>
                <time>2014-09-26T01:20:42Z</time>
            </trkpt>
            <trkpt lon="99.889853" lat="12.705756">
                <ele>74.640000</ele>
                <time>2014-09-26T01:21:24Z</time>
            </trkpt>
            <trkpt lon="99.891259" lat="12.706284">
                <ele>74.160000</ele>
                <time>2014-09-26T01:21:53Z</time>
            </trkpt>
            <trkpt lon="99.892397" lat="12.706202">
                <ele>74.160000</ele>
                <time>2014-09-26T01:22:12Z</time>
            </trkpt>
            <trkpt lon="99.893287" lat="12.704771">
                <ele>68.870000</ele>
                <time>2014-09-26T01:22:35Z</time>
            </trkpt>
            <trkpt lon="99.893422" lat="12.704189">
                <ele>65.990000</ele>
                <time>2014-09-26T01:22:42Z</time>
            </trkpt>
            <trkpt lon="99.893583" lat="12.698672">
                <ele>70.310000</ele>
                <time>2014-09-26T01:24:12Z</time>
            </trkpt>
            <trkpt lon="99.893711" lat="12.694570">
                <ele>64.550000</ele>
                <time>2014-09-26T01:25:16Z</time>
            </trkpt>
            <trkpt lon="99.894441" lat="12.693459">
                <ele>65.510000</ele>
                <time>2014-09-26T01:25:38Z</time>
            </trkpt>
            <trkpt lon="99.894501" lat="12.692297">
                <ele>65.990000</ele>
                <time>2014-09-26T01:26:04Z</time>
            </trkpt>
            <trkpt lon="99.894509" lat="12.692256">
                <ele>66.470000</ele>
                <time>2014-09-26T01:26:44Z</time>
            </trkpt>
            <trkpt lon="99.894637" lat="12.688442">
                <ele>65.510000</ele>
                <time>2014-09-26T01:28:48Z</time>
            </trkpt>
            <trkpt lon="99.894664" lat="12.687156">
                <ele>63.580000</ele>
                <time>2014-09-26T01:29:10Z</time>
            </trkpt>
            <trkpt lon="99.894399" lat="12.686574">
                <ele>62.620000</ele>
                <time>2014-09-26T01:29:21Z</time>
            </trkpt>
            <trkpt lon="99.890980" lat="12.684342">
                <ele>57.820000</ele>
                <time>2014-09-26T01:30:34Z</time>
            </trkpt>
            <trkpt lon="99.890477" lat="12.684718">
                <ele>57.820000</ele>
                <time>2014-09-26T01:30:51Z</time>
            </trkpt>
            <trkpt lon="99.890220" lat="12.685195">
                <ele>57.820000</ele>
                <time>2014-09-26T01:31:05Z</time>
            </trkpt>
            <trkpt lon="99.890017" lat="12.686458">
                <ele>58.300000</ele>
                <time>2014-09-26T01:31:46Z</time>
            </trkpt>
            <trkpt lon="99.890001" lat="12.686463">
                <ele>58.300000</ele>
                <time>2014-09-26T01:31:59Z</time>
            </trkpt>
            <trkpt lon="99.889830" lat="12.686411">
                <ele>56.860000</ele>
                <time>2014-09-26T01:34:01Z</time>
            </trkpt>
            <trkpt lon="99.889764" lat="12.686123">
                <ele>56.860000</ele>
                <time>2014-09-26T01:34:15Z</time>
            </trkpt>
            <trkpt lon="99.889540" lat="12.686126">
                <ele>56.370000</ele>
                <time>2014-09-26T01:34:24Z</time>
            </trkpt>
            <trkpt lon="99.888811" lat="12.686631">
                <ele>56.370000</ele>
                <time>2014-09-26T01:34:47Z</time>
            </trkpt>
            <trkpt lon="99.887763" lat="12.687086">
                <ele>56.370000</ele>
                <time>2014-09-26T01:35:14Z</time>
            </trkpt>
            <trkpt lon="99.886746" lat="12.687647">
                <ele>56.370000</ele>
                <time>2014-09-26T01:35:44Z</time>
            </trkpt>
            <trkpt lon="99.886510" lat="12.687367">
                <ele>55.890000</ele>
                <time>2014-09-26T01:35:55Z</time>
            </trkpt>
            <trkpt lon="99.886346" lat="12.686800">
                <ele>55.410000</ele>
                <time>2014-09-26T01:36:09Z</time>
            </trkpt>
            <trkpt lon="99.886250" lat="12.686546">
                <ele>55.410000</ele>
                <time>2014-09-26T01:36:16Z</time>
            </trkpt>
            <trkpt lon="99.885930" lat="12.686429">
                <ele>55.410000</ele>
                <time>2014-09-26T01:36:28Z</time>
            </trkpt>
            <trkpt lon="99.885397" lat="12.685226">
                <ele>55.410000</ele>
                <time>2014-09-26T01:36:59Z</time>
            </trkpt>
            <trkpt lon="99.885183" lat="12.685226">
                <ele>55.410000</ele>
                <time>2014-09-26T01:37:06Z</time>
            </trkpt>
            <trkpt lon="99.884485" lat="12.685794">
                <ele>55.410000</ele>
                <time>2014-09-26T01:37:29Z</time>
            </trkpt>
            <trkpt lon="99.884258" lat="12.685976">
                <ele>55.410000</ele>
                <time>2014-09-26T01:37:36Z</time>
            </trkpt>
            <trkpt lon="99.882768" lat="12.687213">
                <ele>55.410000</ele>
                <time>2014-09-26T01:38:24Z</time>
            </trkpt>
            <trkpt lon="99.883094" lat="12.687586">
                <ele>56.860000</ele>
                <time>2014-09-26T01:39:39Z</time>
            </trkpt>
            <trkpt lon="99.883262" lat="12.687653">
                <ele>55.890000</ele>
                <time>2014-09-26T01:39:46Z</time>
            </trkpt>
            <trkpt lon="99.883722" lat="12.688245">
                <ele>55.890000</ele>
                <time>2014-09-26T01:40:11Z</time>
            </trkpt>
            <trkpt lon="99.883274" lat="12.688684">
                <ele>56.860000</ele>
                <time>2014-09-26T01:40:43Z</time>
            </trkpt>
            <trkpt lon="99.882901" lat="12.688725">
                <ele>57.820000</ele>
                <time>2014-09-26T01:41:01Z</time>
            </trkpt>
            <trkpt lon="99.882447" lat="12.689766">
                <ele>62.140000</ele>
                <time>2014-09-26T01:41:51Z</time>
            </trkpt>
            <trkpt lon="99.882394" lat="12.689853">
                <ele>62.140000</ele>
                <time>2014-09-26T01:41:56Z</time>
            </trkpt>
            <trkpt lon="99.882420" lat="12.690070">
                <ele>63.100000</ele>
                <time>2014-09-26T01:42:08Z</time>
            </trkpt>
            <trkpt lon="99.882130" lat="12.690968">
                <ele>65.510000</ele>
                <time>2014-09-26T01:43:04Z</time>
            </trkpt>
            <trkpt lon="99.882134" lat="12.691903">
                <ele>68.870000</ele>
                <time>2014-09-26T01:43:46Z</time>
            </trkpt>
            <trkpt lon="99.882002" lat="12.692037">
                <ele>69.830000</ele>
                <time>2014-09-26T01:44:09Z</time>
            </trkpt>
            <trkpt lon="99.882042" lat="12.692292">
                <ele>70.790000</ele>
                <time>2014-09-26T01:44:33Z</time>
            </trkpt>
            <trkpt lon="99.882025" lat="12.692568">
                <ele>72.240000</ele>
                <time>2014-09-26T01:45:06Z</time>
            </trkpt>
            <trkpt lon="99.881898" lat="12.693534">
                <ele>75.600000</ele>
                <time>2014-09-26T01:45:44Z</time>
            </trkpt>
            <trkpt lon="99.881905" lat="12.693591">
                <ele>75.600000</ele>
                <time>2014-09-26T01:45:54Z</time>
            </trkpt>
            <trkpt lon="99.881386" lat="12.693513">
                <ele>77.040000</ele>
                <time>2014-09-26T01:48:32Z</time>
            </trkpt>
            <trkpt lon="99.880755" lat="12.693203">
                <ele>78.000000</ele>
                <time>2014-09-26T01:48:57Z</time>
            </trkpt>
            <trkpt lon="99.880247" lat="12.693018">
                <ele>75.120000</ele>
                <time>2014-09-26T01:49:10Z</time>
            </trkpt>
            <trkpt lon="99.880017" lat="12.692913">
                <ele>75.120000</ele>
                <time>2014-09-26T01:49:15Z</time>
            </trkpt>
            <trkpt lon="99.879315" lat="12.692999">
                <ele>75.600000</ele>
                <time>2014-09-26T01:49:43Z</time>
            </trkpt>
            <trkpt lon="99.878581" lat="12.692978">
                <ele>73.200000</ele>
                <time>2014-09-26T01:50:06Z</time>
            </trkpt>
            <trkpt lon="99.878354" lat="12.693260">
                <ele>72.240000</ele>
                <time>2014-09-26T01:50:25Z</time>
            </trkpt>
            <trkpt lon="99.878034" lat="12.693791">
                <ele>72.240000</ele>
                <time>2014-09-26T01:50:57Z</time>
            </trkpt>
            <trkpt lon="99.877721" lat="12.694168">
                <ele>72.240000</ele>
                <time>2014-09-26T01:51:20Z</time>
            </trkpt>
            <trkpt lon="99.877565" lat="12.694207">
                <ele>70.310000</ele>
                <time>2014-09-26T01:51:25Z</time>
            </trkpt>
            <trkpt lon="99.877050" lat="12.693292">
                <ele>71.760000</ele>
                <time>2014-09-26T01:52:01Z</time>
            </trkpt>
            <trkpt lon="99.876896" lat="12.693238">
                <ele>68.870000</ele>
                <time>2014-09-26T01:52:15Z</time>
            </trkpt>
            <trkpt lon="99.876637" lat="12.693219">
                <ele>68.870000</ele>
                <time>2014-09-26T01:52:33Z</time>
            </trkpt>
            <trkpt lon="99.876181" lat="12.693470">
                <ele>72.720000</ele>
                <time>2014-09-26T01:52:58Z</time>
            </trkpt>
            <trkpt lon="99.875899" lat="12.693321">
                <ele>74.640000</ele>
                <time>2014-09-26T01:53:10Z</time>
            </trkpt>
            <trkpt lon="99.875416" lat="12.692422">
                <ele>82.810000</ele>
                <time>2014-09-26T01:53:56Z</time>
            </trkpt>
            <trkpt lon="99.874824" lat="12.692410">
                <ele>82.330000</ele>
                <time>2014-09-26T01:54:17Z</time>
            </trkpt>
            <trkpt lon="99.874780" lat="12.692507">
                <ele>82.330000</ele>
                <time>2014-09-26T01:54:23Z</time>
            </trkpt>
            <trkpt lon="99.874856" lat="12.692826">
                <ele>80.890000</ele>
                <time>2014-09-26T01:54:37Z</time>
            </trkpt>
            <trkpt lon="99.874520" lat="12.692864">
                <ele>79.930000</ele>
                <time>2014-09-26T01:54:52Z</time>
            </trkpt>
            <trkpt lon="99.874399" lat="12.692743">
                <ele>79.930000</ele>
                <time>2014-09-26T01:55:00Z</time>
            </trkpt>
            <trkpt lon="99.874112" lat="12.692705">
                <ele>79.930000</ele>
                <time>2014-09-26T01:55:15Z</time>
            </trkpt>
            <trkpt lon="99.873698" lat="12.692813">
                <ele>78.480000</ele>
                <time>2014-09-26T01:55:45Z</time>
            </trkpt>
            <trkpt lon="99.873315" lat="12.692902">
                <ele>78.000000</ele>
                <time>2014-09-26T01:56:24Z</time>
            </trkpt>
            <trkpt lon="99.873104" lat="12.692795">
                <ele>77.520000</ele>
                <time>2014-09-26T01:56:35Z</time>
            </trkpt>
            <trkpt lon="99.872992" lat="12.692568">
                <ele>77.520000</ele>
                <time>2014-09-26T01:56:45Z</time>
            </trkpt>
            <trkpt lon="99.872613" lat="12.692233">
                <ele>77.520000</ele>
                <time>2014-09-26T01:57:16Z</time>
            </trkpt>
            <trkpt lon="99.872079" lat="12.691740">
                <ele>75.600000</ele>
                <time>2014-09-26T01:57:44Z</time>
            </trkpt>
            <trkpt lon="99.871599" lat="12.692859">
                <ele>73.200000</ele>
                <time>2014-09-26T01:58:27Z</time>
            </trkpt>
            <trkpt lon="99.871091" lat="12.693434">
                <ele>70.790000</ele>
                <time>2014-09-26T01:58:46Z</time>
            </trkpt>
            <trkpt lon="99.870749" lat="12.694491">
                <ele>67.910000</ele>
                <time>2014-09-26T01:59:35Z</time>
            </trkpt>
            <trkpt lon="99.870588" lat="12.694707">
                <ele>65.990000</ele>
                <time>2014-09-26T02:00:27Z</time>
            </trkpt>
            <trkpt lon="99.870529" lat="12.695564">
                <ele>64.550000</ele>
                <time>2014-09-26T02:03:38Z</time>
            </trkpt>
            <trkpt lon="99.870619" lat="12.696152">
                <ele>60.220000</ele>
                <time>2014-09-26T02:06:00Z</time>
            </trkpt>
            <trkpt lon="99.870747" lat="12.696152">
                <ele>61.660000</ele>
                <time>2014-09-26T02:07:02Z</time>
            </trkpt>
            <trkpt lon="99.870359" lat="12.696440">
                <ele>58.780000</ele>
                <time>2014-09-26T02:07:24Z</time>
            </trkpt>
            <trkpt lon="99.869791" lat="12.696252">
                <ele>58.780000</ele>
                <time>2014-09-26T02:07:43Z</time>
            </trkpt>
            <trkpt lon="99.869107" lat="12.696392">
                <ele>57.340000</ele>
                <time>2014-09-26T02:08:06Z</time>
            </trkpt>
            <trkpt lon="99.868421" lat="12.696665">
                <ele>57.340000</ele>
                <time>2014-09-26T02:08:32Z</time>
            </trkpt>
            <trkpt lon="99.868579" lat="12.697257">
                <ele>58.780000</ele>
                <time>2014-09-26T02:09:11Z</time>
            </trkpt>
            <trkpt lon="99.868550" lat="12.697665">
                <ele>59.260000</ele>
                <time>2014-09-26T02:09:26Z</time>
            </trkpt>
            <trkpt lon="99.866366" lat="12.697796">
                <ele>59.740000</ele>
                <time>2014-09-26T02:10:28Z</time>
            </trkpt>
            <trkpt lon="99.865811" lat="12.697017">
                <ele>59.740000</ele>
                <time>2014-09-26T02:10:54Z</time>
            </trkpt>
            <trkpt lon="99.865743" lat="12.696864">
                <ele>58.780000</ele>
                <time>2014-09-26T02:10:58Z</time>
            </trkpt>
            <trkpt lon="99.865720" lat="12.696808">
                <ele>58.780000</ele>
                <time>2014-09-26T02:11:00Z</time>
            </trkpt>
            <trkpt lon="99.865583" lat="12.696895">
                <ele>60.220000</ele>
                <time>2014-09-26T02:11:13Z</time>
            </trkpt>
            <trkpt lon="99.865254" lat="12.697582">
                <ele>60.700000</ele>
                <time>2014-09-26T02:11:46Z</time>
            </trkpt>
            <trkpt lon="99.862719" lat="12.697080">
                <ele>60.700000</ele>
                <time>2014-09-26T02:12:59Z</time>
            </trkpt>
            <trkpt lon="99.862105" lat="12.698990">
                <ele>62.140000</ele>
                <time>2014-09-26T02:14:08Z</time>
            </trkpt>
            <trkpt lon="99.862051" lat="12.699143">
                <ele>62.140000</ele>
                <time>2014-09-26T02:14:13Z</time>
            </trkpt>
            <trkpt lon="99.861893" lat="12.699174">
                <ele>62.140000</ele>
                <time>2014-09-26T02:14:18Z</time>
            </trkpt>
            <trkpt lon="99.860972" lat="12.699138">
                <ele>62.140000</ele>
                <time>2014-09-26T02:14:46Z</time>
            </trkpt>
            <trkpt lon="99.860138" lat="12.698961">
                <ele>62.140000</ele>
                <time>2014-09-26T02:15:13Z</time>
            </trkpt>
            <trkpt lon="99.859681" lat="12.698978">
                <ele>61.180000</ele>
                <time>2014-09-26T02:15:26Z</time>
            </trkpt>
            <trkpt lon="99.859120" lat="12.699068">
                <ele>61.180000</ele>
                <time>2014-09-26T02:15:52Z</time>
            </trkpt>
            <trkpt lon="99.859067" lat="12.699082">
                <ele>61.180000</ele>
                <time>2014-09-26T02:15:55Z</time>
            </trkpt>
            <trkpt lon="99.859249" lat="12.702560">
                <ele>65.990000</ele>
                <time>2014-09-26T02:18:05Z</time>
            </trkpt>
            <trkpt lon="99.858921" lat="12.702622">
                <ele>68.870000</ele>
                <time>2014-09-26T02:19:19Z</time>
            </trkpt>
            <trkpt lon="99.858615" lat="12.702425">
                <ele>68.870000</ele>
                <time>2014-09-26T02:19:32Z</time>
            </trkpt>
            <trkpt lon="99.858506" lat="12.702435">
                <ele>67.910000</ele>
                <time>2014-09-26T02:20:25Z</time>
            </trkpt>
            <trkpt lon="99.858587" lat="12.703433">
                <ele>67.910000</ele>
                <time>2014-09-26T02:23:14Z</time>
            </trkpt>
            <trkpt lon="99.858889" lat="12.703590">
                <ele>67.430000</ele>
                <time>2014-09-26T02:23:24Z</time>
            </trkpt>
            <trkpt lon="99.859167" lat="12.703825">
                <ele>65.990000</ele>
                <time>2014-09-26T02:23:34Z</time>
            </trkpt>
            <trkpt lon="99.859238" lat="12.704757">
                <ele>68.390000</ele>
                <time>2014-09-26T02:24:05Z</time>
            </trkpt>
            <trkpt lon="99.859040" lat="12.704913">
                <ele>68.390000</ele>
                <time>2014-09-26T02:24:15Z</time>
            </trkpt>
            <trkpt lon="99.858456" lat="12.704526">
                <ele>69.830000</ele>
                <time>2014-09-26T02:24:40Z</time>
            </trkpt>
            <trkpt lon="99.858367" lat="12.704567">
                <ele>70.310000</ele>
                <time>2014-09-26T02:24:46Z</time>
            </trkpt>
            <trkpt lon="99.858332" lat="12.704611">
                <ele>70.310000</ele>
                <time>2014-09-26T02:24:50Z</time>
            </trkpt>
            <trkpt lon="99.858373" lat="12.704803">
                <ele>70.310000</ele>
                <time>2014-09-26T02:25:08Z</time>
            </trkpt>
            <trkpt lon="99.858393" lat="12.704907">
                <ele>71.270000</ele>
                <time>2014-09-26T02:25:30Z</time>
            </trkpt>
            <trkpt lon="99.858418" lat="12.706716">
                <ele>71.270000</ele>
                <time>2014-09-26T02:26:34Z</time>
            </trkpt>
            <trkpt lon="99.858289" lat="12.707630">
                <ele>72.240000</ele>
                <time>2014-09-26T02:27:05Z</time>
            </trkpt>
            <trkpt lon="99.855788" lat="12.707566">
                <ele>78.480000</ele>
                <time>2014-09-26T02:28:42Z</time>
            </trkpt>
            <trkpt lon="99.855720" lat="12.707216">
                <ele>78.480000</ele>
                <time>2014-09-26T02:28:52Z</time>
            </trkpt>
            <trkpt lon="99.855320" lat="12.706963">
                <ele>79.450000</ele>
                <time>2014-09-26T02:29:11Z</time>
            </trkpt>
            <trkpt lon="99.854379" lat="12.706618">
                <ele>82.810000</ele>
                <time>2014-09-26T02:29:54Z</time>
            </trkpt>
            <trkpt lon="99.854193" lat="12.706336">
                <ele>85.210000</ele>
                <time>2014-09-26T02:30:08Z</time>
            </trkpt>
            <trkpt lon="99.853880" lat="12.706144">
                <ele>86.660000</ele>
                <time>2014-09-26T02:30:22Z</time>
            </trkpt>
            <trkpt lon="99.853402" lat="12.705919">
                <ele>88.100000</ele>
                <time>2014-09-26T02:33:23Z</time>
            </trkpt>
            <trkpt lon="99.851965" lat="12.705740">
                <ele>86.180000</ele>
                <time>2014-09-26T02:34:04Z</time>
            </trkpt>
            <trkpt lon="99.851715" lat="12.706307">
                <ele>89.060000</ele>
                <time>2014-09-26T02:35:13Z</time>
            </trkpt>
            <trkpt lon="99.851426" lat="12.706477">
                <ele>89.540000</ele>
                <time>2014-09-26T02:35:26Z</time>
            </trkpt>
            <trkpt lon="99.851046" lat="12.706936">
                <ele>90.500000</ele>
                <time>2014-09-26T02:35:49Z</time>
            </trkpt>
            <trkpt lon="99.851154" lat="12.707733">
                <ele>95.790000</ele>
                <time>2014-09-26T02:36:29Z</time>
            </trkpt>
            <trkpt lon="99.851146" lat="12.708413">
                <ele>96.750000</ele>
                <time>2014-09-26T02:37:00Z</time>
            </trkpt>
            <trkpt lon="99.850655" lat="12.708803">
                <ele>104.920000</ele>
                <time>2014-09-26T02:38:44Z</time>
            </trkpt>
            <trkpt lon="99.850432" lat="12.709129">
                <ele>106.360000</ele>
                <time>2014-09-26T02:39:04Z</time>
            </trkpt>
            <trkpt lon="99.850190" lat="12.710068">
                <ele>110.210000</ele>
                <time>2014-09-26T02:39:52Z</time>
            </trkpt>
            <trkpt lon="99.850619" lat="12.710794">
                <ele>115.010000</ele>
                <time>2014-09-26T02:40:36Z</time>
            </trkpt>
            <trkpt lon="99.850586" lat="12.711422">
                <ele>112.610000</ele>
                <time>2014-09-26T02:41:01Z</time>
            </trkpt>
            <trkpt lon="99.850452" lat="12.711801">
                <ele>110.210000</ele>
                <time>2014-09-26T02:41:12Z</time>
            </trkpt>
            <trkpt lon="99.850535" lat="12.711938">
                <ele>109.250000</ele>
                <time>2014-09-26T02:41:18Z</time>
            </trkpt>
            <trkpt lon="99.850887" lat="12.712166">
                <ele>106.840000</ele>
                <time>2014-09-26T02:41:52Z</time>
            </trkpt>
            <trkpt lon="99.850870" lat="12.712776">
                <ele>119.820000</ele>
                <time>2014-09-26T02:43:50Z</time>
            </trkpt>
            <trkpt lon="99.850954" lat="12.713312">
                <ele>129.430000</ele>
                <time>2014-09-26T02:45:04Z</time>
            </trkpt>
            <trkpt lon="99.851006" lat="12.713638">
                <ele>131.360000</ele>
                <time>2014-09-26T02:45:38Z</time>
            </trkpt>
            <trkpt lon="99.851171" lat="12.714497">
                <ele>121.260000</ele>
                <time>2014-09-26T02:51:00Z</time>
            </trkpt>
            <trkpt lon="99.851650" lat="12.715005">
                <ele>117.900000</ele>
                <time>2014-09-26T02:52:02Z</time>
            </trkpt>
            <trkpt lon="99.852082" lat="12.715433">
                <ele>114.530000</ele>
                <time>2014-09-26T02:52:16Z</time>
            </trkpt>
            <trkpt lon="99.852770" lat="12.716243">
                <ele>113.570000</ele>
                <time>2014-09-26T02:52:37Z</time>
            </trkpt>
            <trkpt lon="99.852952" lat="12.716458">
                <ele>110.210000</ele>
                <time>2014-09-26T02:52:44Z</time>
            </trkpt>
            <trkpt lon="99.853150" lat="12.716670">
                <ele>109.250000</ele>
                <time>2014-09-26T02:52:51Z</time>
            </trkpt>
            <trkpt lon="99.853731" lat="12.717140">
                <ele>109.250000</ele>
                <time>2014-09-26T02:53:08Z</time>
            </trkpt>
            <trkpt lon="99.853878" lat="12.717617">
                <ele>106.360000</ele>
                <time>2014-09-26T02:53:18Z</time>
            </trkpt>
            <trkpt lon="99.854000" lat="12.718369">
                <ele>101.560000</ele>
                <time>2014-09-26T02:53:29Z</time>
            </trkpt>
            <trkpt lon="99.854199" lat="12.719510">
                <ele>96.750000</ele>
                <time>2014-09-26T02:53:50Z</time>
            </trkpt>
            <trkpt lon="99.852411" lat="12.721194">
                <ele>94.350000</ele>
                <time>2014-09-26T02:54:42Z</time>
            </trkpt>
            <trkpt lon="99.852326" lat="12.721187">
                <ele>94.350000</ele>
                <time>2014-09-26T02:54:44Z</time>
            </trkpt>
            <trkpt lon="99.850346" lat="12.720963">
                <ele>93.390000</ele>
                <time>2014-09-26T02:55:29Z</time>
            </trkpt>
            <trkpt lon="99.850248" lat="12.720825">
                <ele>93.390000</ele>
                <time>2014-09-26T02:55:41Z</time>
            </trkpt>
            <trkpt lon="99.848212" lat="12.721031">
                <ele>101.080000</ele>
                <time>2014-09-26T03:45:28Z</time>
            </trkpt>
            <trkpt lon="99.847984" lat="12.721094">
                <ele>101.080000</ele>
                <time>2014-09-26T03:45:34Z</time>
            </trkpt>
            <trkpt lon="99.847993" lat="12.721578">
                <ele>102.040000</ele>
                <time>2014-09-26T03:45:46Z</time>
            </trkpt>
            <trkpt lon="99.848719" lat="12.724040">
                <ele>107.810000</ele>
                <time>2014-09-26T03:46:54Z</time>
            </trkpt>
            <trkpt lon="99.848929" lat="12.725161">
                <ele>112.610000</ele>
                <time>2014-09-26T03:47:29Z</time>
            </trkpt>
            <trkpt lon="99.849194" lat="12.726575">
                <ele>116.460000</ele>
                <time>2014-09-26T03:48:18Z</time>
            </trkpt>
            <trkpt lon="99.848309" lat="12.726786">
                <ele>110.210000</ele>
                <time>2014-09-26T03:48:53Z</time>
            </trkpt>
            <trkpt lon="99.848259" lat="12.727422">
                <ele>113.090000</ele>
                <time>2014-09-26T03:49:23Z</time>
            </trkpt>
            <trkpt lon="99.848401" lat="12.727480">
                <ele>113.090000</ele>
                <time>2014-09-26T03:49:27Z</time>
            </trkpt>
            <trkpt lon="99.848580" lat="12.727946">
                <ele>113.090000</ele>
                <time>2014-09-26T03:49:47Z</time>
            </trkpt>
            <trkpt lon="99.848143" lat="12.728175">
                <ele>115.980000</ele>
                <time>2014-09-26T03:50:08Z</time>
            </trkpt>
            <trkpt lon="99.848134" lat="12.728219">
                <ele>115.980000</ele>
                <time>2014-09-26T03:50:10Z</time>
            </trkpt>
            <trkpt lon="99.848317" lat="12.728566">
                <ele>115.980000</ele>
                <time>2014-09-26T03:50:23Z</time>
            </trkpt>
            <trkpt lon="99.848415" lat="12.728646">
                <ele>114.530000</ele>
                <time>2014-09-26T03:50:26Z</time>
            </trkpt>
            <trkpt lon="99.848591" lat="12.728812">
                <ele>114.050000</ele>
                <time>2014-09-26T03:50:31Z</time>
            </trkpt>
            <trkpt lon="99.848617" lat="12.729606">
                <ele>116.460000</ele>
                <time>2014-09-26T03:50:55Z</time>
            </trkpt>
            <trkpt lon="99.848450" lat="12.730073">
                <ele>117.420000</ele>
                <time>2014-09-26T03:51:09Z</time>
            </trkpt>
            <trkpt lon="99.848110" lat="12.730406">
                <ele>118.380000</ele>
                <time>2014-09-26T03:51:22Z</time>
            </trkpt>
            <trkpt lon="99.847711" lat="12.730748">
                <ele>118.860000</ele>
                <time>2014-09-26T03:51:36Z</time>
            </trkpt>
            <trkpt lon="99.846028" lat="12.731628">
                <ele>118.860000</ele>
                <time>2014-09-26T03:52:25Z</time>
            </trkpt>
            <trkpt lon="99.844726" lat="12.732264">
                <ele>115.980000</ele>
                <time>2014-09-26T03:52:54Z</time>
            </trkpt>
            <trkpt lon="99.844903" lat="12.734031">
                <ele>118.380000</ele>
                <time>2014-09-26T03:53:42Z</time>
            </trkpt>
            <trkpt lon="99.844753" lat="12.734228">
                <ele>119.340000</ele>
                <time>2014-09-26T03:53:55Z</time>
            </trkpt>
            <trkpt lon="99.844301" lat="12.734330">
                <ele>118.380000</ele>
                <time>2014-09-26T03:54:08Z</time>
            </trkpt>
            <trkpt lon="99.844237" lat="12.734849">
                <ele>121.260000</ele>
                <time>2014-09-26T03:54:39Z</time>
            </trkpt>
            <trkpt lon="99.844215" lat="12.734895">
                <ele>121.260000</ele>
                <time>2014-09-26T03:54:52Z</time>
            </trkpt>
            <trkpt lon="99.844038" lat="12.734954">
                <ele>121.260000</ele>
                <time>2014-09-26T03:55:04Z</time>
            </trkpt>
            <trkpt lon="99.844366" lat="12.735412">
                <ele>128.950000</ele>
                <time>2014-09-26T03:56:45Z</time>
            </trkpt>
            <trkpt lon="99.844449" lat="12.735620">
                <ele>124.630000</ele>
                <time>2014-09-26T03:56:54Z</time>
            </trkpt>
            <trkpt lon="99.844570" lat="12.736579">
                <ele>131.840000</ele>
                <time>2014-09-26T03:57:46Z</time>
            </trkpt>
            <trkpt lon="99.844048" lat="12.736937">
                <ele>133.760000</ele>
                <time>2014-09-26T03:58:16Z</time>
            </trkpt>
            <trkpt lon="99.843975" lat="12.737327">
                <ele>136.160000</ele>
                <time>2014-09-26T03:58:34Z</time>
            </trkpt>
            <trkpt lon="99.843754" lat="12.737905">
                <ele>139.050000</ele>
                <time>2014-09-26T03:59:15Z</time>
            </trkpt>
            <trkpt lon="99.843941" lat="12.738084">
                <ele>140.970000</ele>
                <time>2014-09-26T04:02:00Z</time>
            </trkpt>
            <trkpt lon="99.844046" lat="12.738469">
                <ele>143.370000</ele>
                <time>2014-09-26T04:02:19Z</time>
            </trkpt>
            <trkpt lon="99.844099" lat="12.738619">
                <ele>143.850000</ele>
                <time>2014-09-26T04:02:27Z</time>
            </trkpt>
            <trkpt lon="99.844477" lat="12.739141">
                <ele>148.180000</ele>
                <time>2014-09-26T04:03:02Z</time>
            </trkpt>
            <trkpt lon="99.844646" lat="12.739629">
                <ele>151.540000</ele>
                <time>2014-09-26T04:03:31Z</time>
            </trkpt>
            <trkpt lon="99.844624" lat="12.739755">
                <ele>152.030000</ele>
                <time>2014-09-26T04:03:38Z</time>
            </trkpt>
            <trkpt lon="99.845988" lat="12.739761">
                <ele>152.030000</ele>
                <time>2014-09-26T04:05:03Z</time>
            </trkpt>
            <trkpt lon="99.846210" lat="12.739712">
                <ele>150.580000</ele>
                <time>2014-09-26T04:05:08Z</time>
            </trkpt>
            <trkpt lon="99.846165" lat="12.739845">
                <ele>149.620000</ele>
                <time>2014-09-26T04:05:27Z</time>
            </trkpt>
            <trkpt lon="99.846175" lat="12.739823">
                <ele>152.030000</ele>
                <time>2014-09-26T04:05:29Z</time>
            </trkpt>
            <trkpt lon="99.846180" lat="12.739796">
                <ele>151.060000</ele>
                <time>2014-09-26T04:05:31Z</time>
            </trkpt>
            <trkpt lon="99.846265" lat="12.739694">
                <ele>151.060000</ele>
                <time>2014-09-26T04:05:42Z</time>
            </trkpt>
            <trkpt lon="99.846925" lat="12.740212">
                <ele>154.430000</ele>
                <time>2014-09-26T04:06:23Z</time>
            </trkpt>
            <trkpt lon="99.848188" lat="12.740383">
                <ele>158.750000</ele>
                <time>2014-09-26T04:07:13Z</time>
            </trkpt>
            <trkpt lon="99.849575" lat="12.740480">
                <ele>159.720000</ele>
                <time>2014-09-26T04:08:09Z</time>
            </trkpt>
            <trkpt lon="99.850850" lat="12.740151">
                <ele>154.430000</ele>
                <time>2014-09-26T04:10:02Z</time>
            </trkpt>
            <trkpt lon="99.850913" lat="12.740079">
                <ele>151.540000</ele>
                <time>2014-09-26T04:10:08Z</time>
            </trkpt>
            <trkpt lon="99.850928" lat="12.740165">
                <ele>154.430000</ele>
                <time>2014-09-26T04:10:59Z</time>
            </trkpt>
            <trkpt lon="99.851124" lat="12.740246">
                <ele>155.390000</ele>
                <time>2014-09-26T04:11:28Z</time>
            </trkpt>
            <trkpt lon="99.851473" lat="12.740280">
                <ele>151.540000</ele>
                <time>2014-09-26T04:12:03Z</time>
            </trkpt>
            <trkpt lon="99.851927" lat="12.740878">
                <ele>157.310000</ele>
                <time>2014-09-26T04:14:44Z</time>
            </trkpt>
            <trkpt lon="99.852101" lat="12.740950">
                <ele>157.310000</ele>
                <time>2014-09-26T04:15:05Z</time>
            </trkpt>
            <trkpt lon="99.852258" lat="12.741513">
                <ele>161.640000</ele>
                <time>2014-09-26T04:15:49Z</time>
            </trkpt>
            <trkpt lon="99.852916" lat="12.741575">
                <ele>158.750000</ele>
                <time>2014-09-26T04:16:30Z</time>
            </trkpt>
            <trkpt lon="99.853292" lat="12.742577">
                <ele>165.000000</ele>
                <time>2014-09-26T04:17:42Z</time>
            </trkpt>
            <trkpt lon="99.853389" lat="12.742645">
                <ele>165.000000</ele>
                <time>2014-09-26T04:17:48Z</time>
            </trkpt>
            <trkpt lon="99.853811" lat="12.743192">
                <ele>166.930000</ele>
                <time>2014-09-26T04:18:21Z</time>
            </trkpt>
            <trkpt lon="99.854296" lat="12.743407">
                <ele>165.000000</ele>
                <time>2014-09-26T04:18:41Z</time>
            </trkpt>
            <trkpt lon="99.854704" lat="12.743334">
                <ele>164.520000</ele>
                <time>2014-09-26T04:18:57Z</time>
            </trkpt>
            <trkpt lon="99.855259" lat="12.743208">
                <ele>162.120000</ele>
                <time>2014-09-26T04:19:15Z</time>
            </trkpt>
            <trkpt lon="99.855294" lat="12.743131">
                <ele>161.640000</ele>
                <time>2014-09-26T04:19:26Z</time>
            </trkpt>
            <trkpt lon="99.855544" lat="12.743077">
                <ele>160.200000</ele>
                <time>2014-09-26T04:19:45Z</time>
            </trkpt>
            <trkpt lon="99.855712" lat="12.743137">
                <ele>160.680000</ele>
                <time>2014-09-26T04:20:00Z</time>
            </trkpt>
            <trkpt lon="99.856159" lat="12.743101">
                <ele>157.310000</ele>
                <time>2014-09-26T04:20:45Z</time>
            </trkpt>
            <trkpt lon="99.856130" lat="12.742614">
                <ele>155.870000</ele>
                <time>2014-09-26T04:29:44Z</time>
            </trkpt>
            <trkpt lon="99.855694" lat="12.742232">
                <ele>153.950000</ele>
                <time>2014-09-26T04:30:06Z</time>
            </trkpt>
            <trkpt lon="99.855186" lat="12.741727">
                <ele>151.540000</ele>
                <time>2014-09-26T04:30:28Z</time>
            </trkpt>
            <trkpt lon="99.854452" lat="12.740715">
                <ele>147.220000</ele>
                <time>2014-09-26T04:31:36Z</time>
            </trkpt>
            <trkpt lon="99.854697" lat="12.739478">
                <ele>146.260000</ele>
                <time>2014-09-26T04:33:05Z</time>
            </trkpt>
            <trkpt lon="99.854475" lat="12.738181">
                <ele>144.340000</ele>
                <time>2014-09-26T04:33:47Z</time>
            </trkpt>
            <trkpt lon="99.854318" lat="12.737622">
                <ele>142.890000</ele>
                <time>2014-09-26T04:34:00Z</time>
            </trkpt>
            <trkpt lon="99.854232" lat="12.737304">
                <ele>141.450000</ele>
                <time>2014-09-26T04:34:07Z</time>
            </trkpt>
            <trkpt lon="99.854054" lat="12.736723">
                <ele>139.530000</ele>
                <time>2014-09-26T04:34:23Z</time>
            </trkpt>
            <trkpt lon="99.854085" lat="12.734599">
                <ele>133.280000</ele>
                <time>2014-09-26T04:35:25Z</time>
            </trkpt>
            <trkpt lon="99.854685" lat="12.734075">
                <ele>131.360000</ele>
                <time>2014-09-26T04:35:47Z</time>
            </trkpt>
            <trkpt lon="99.854834" lat="12.733741">
                <ele>130.880000</ele>
                <time>2014-09-26T04:35:57Z</time>
            </trkpt>
            <trkpt lon="99.854765" lat="12.733062">
                <ele>129.430000</ele>
                <time>2014-09-26T04:36:13Z</time>
            </trkpt>
            <trkpt lon="99.854365" lat="12.732545">
                <ele>128.950000</ele>
                <time>2014-09-26T04:36:40Z</time>
            </trkpt>
            <trkpt lon="99.855597" lat="12.731712">
                <ele>127.030000</ele>
                <time>2014-09-26T04:37:30Z</time>
            </trkpt>
            <trkpt lon="99.856288" lat="12.731632">
                <ele>125.590000</ele>
                <time>2014-09-26T04:37:46Z</time>
            </trkpt>
            <trkpt lon="99.856334" lat="12.731742">
                <ele>125.110000</ele>
                <time>2014-09-26T04:37:49Z</time>
            </trkpt>
            <trkpt lon="99.856784" lat="12.733622">
                <ele>126.550000</ele>
                <time>2014-09-26T04:38:34Z</time>
            </trkpt>
            <trkpt lon="99.856926" lat="12.734262">
                <ele>125.110000</ele>
                <time>2014-09-26T04:38:50Z</time>
            </trkpt>
            <trkpt lon="99.856965" lat="12.734359">
                <ele>125.110000</ele>
                <time>2014-09-26T04:38:52Z</time>
            </trkpt>
            <trkpt lon="99.857330" lat="12.735023">
                <ele>122.220000</ele>
                <time>2014-09-26T04:41:51Z</time>
            </trkpt>
            <trkpt lon="99.857738" lat="12.734782">
                <ele>120.780000</ele>
                <time>2014-09-26T04:43:10Z</time>
            </trkpt>
            <trkpt lon="99.858300" lat="12.735062">
                <ele>120.780000</ele>
                <time>2014-09-26T04:43:33Z</time>
            </trkpt>
            <trkpt lon="99.858515" lat="12.734991">
                <ele>121.260000</ele>
                <time>2014-09-26T04:43:42Z</time>
            </trkpt>
            <trkpt lon="99.858555" lat="12.734910">
                <ele>121.260000</ele>
                <time>2014-09-26T04:43:46Z</time>
            </trkpt>
            <trkpt lon="99.858735" lat="12.734585">
                <ele>118.860000</ele>
                <time>2014-09-26T04:43:55Z</time>
            </trkpt>
            <trkpt lon="99.858855" lat="12.734591">
                <ele>117.420000</ele>
                <time>2014-09-26T04:43:58Z</time>
            </trkpt>
            <trkpt lon="99.859166" lat="12.734855">
                <ele>121.740000</ele>
                <time>2014-09-26T04:44:16Z</time>
            </trkpt>
            <trkpt lon="99.859111" lat="12.735039">
                <ele>124.150000</ele>
                <time>2014-09-26T04:44:30Z</time>
            </trkpt>
            <trkpt lon="99.859066" lat="12.735134">
                <ele>122.710000</ele>
                <time>2014-09-26T04:44:55Z</time>
            </trkpt>
            <trkpt lon="99.859061" lat="12.735554">
                <ele>126.550000</ele>
                <time>2014-09-26T04:45:37Z</time>
            </trkpt>
            <trkpt lon="99.859113" lat="12.735582">
                <ele>126.550000</ele>
                <time>2014-09-26T04:46:07Z</time>
            </trkpt>
            <trkpt lon="99.859852" lat="12.735442">
                <ele>120.780000</ele>
                <time>2014-09-26T04:46:26Z</time>
            </trkpt>
            <trkpt lon="99.860658" lat="12.735186">
                <ele>121.260000</ele>
                <time>2014-09-26T04:46:48Z</time>
            </trkpt>
            <trkpt lon="99.861096" lat="12.735210">
                <ele>122.710000</ele>
                <time>2014-09-26T04:47:02Z</time>
            </trkpt>
            <trkpt lon="99.861253" lat="12.735374">
                <ele>125.590000</ele>
                <time>2014-09-26T04:47:30Z</time>
            </trkpt>
            <trkpt lon="99.861960" lat="12.735074">
                <ele>126.070000</ele>
                <time>2014-09-26T04:48:00Z</time>
            </trkpt>
            <trkpt lon="99.862372" lat="12.735380">
                <ele>129.920000</ele>
                <time>2014-09-26T04:48:24Z</time>
            </trkpt>
            <trkpt lon="99.862537" lat="12.735267">
                <ele>129.920000</ele>
                <time>2014-09-26T04:48:50Z</time>
            </trkpt>
            <trkpt lon="99.862915" lat="12.735833">
                <ele>133.280000</ele>
                <time>2014-09-26T04:50:07Z</time>
            </trkpt>
            <trkpt lon="99.863396" lat="12.736222">
                <ele>131.840000</ele>
                <time>2014-09-26T04:50:28Z</time>
            </trkpt>
            <trkpt lon="99.864145" lat="12.736560">
                <ele>136.640000</ele>
                <time>2014-09-26T04:51:12Z</time>
            </trkpt>
            <trkpt lon="99.864800" lat="12.737200">
                <ele>148.660000</ele>
                <time>2014-09-26T04:52:19Z</time>
            </trkpt>
            <trkpt lon="99.864893" lat="12.737228">
                <ele>149.140000</ele>
                <time>2014-09-26T04:52:27Z</time>
            </trkpt>
            <trkpt lon="99.865469" lat="12.738247">
                <ele>155.870000</ele>
                <time>2014-09-26T04:53:33Z</time>
            </trkpt>
            <trkpt lon="99.866018" lat="12.738710">
                <ele>167.410000</ele>
                <time>2014-09-26T04:54:20Z</time>
            </trkpt>
            <trkpt lon="99.866631" lat="12.739032">
                <ele>181.350000</ele>
                <time>2014-09-26T04:55:22Z</time>
            </trkpt>
            <trkpt lon="99.867026" lat="12.739508">
                <ele>195.770000</ele>
                <time>2014-09-26T04:56:17Z</time>
            </trkpt>
            <trkpt lon="99.867935" lat="12.740009">
                <ele>218.360000</ele>
                <time>2014-09-26T04:58:02Z</time>
            </trkpt>
            <trkpt lon="99.868471" lat="12.740143">
                <ele>227.010000</ele>
                <time>2014-09-26T04:58:49Z</time>
            </trkpt>
            <trkpt lon="99.868823" lat="12.740204">
                <ele>235.660000</ele>
                <time>2014-09-26T04:59:23Z</time>
            </trkpt>
            <trkpt lon="99.869148" lat="12.740464">
                <ele>242.870000</ele>
                <time>2014-09-26T04:59:58Z</time>
            </trkpt>
            <trkpt lon="99.869315" lat="12.740601">
                <ele>244.790000</ele>
                <time>2014-09-26T05:00:14Z</time>
            </trkpt>
            <trkpt lon="99.869499" lat="12.740734">
                <ele>245.270000</ele>
                <time>2014-09-26T05:00:26Z</time>
            </trkpt>
            <trkpt lon="99.869620" lat="12.740881">
                <ele>241.910000</ele>
                <time>2014-09-26T05:00:30Z</time>
            </trkpt>
            <trkpt lon="99.869670" lat="12.741093">
                <ele>238.060000</ele>
                <time>2014-09-26T05:00:33Z</time>
            </trkpt>
            <trkpt lon="99.869625" lat="12.741671">
                <ele>231.810000</ele>
                <time>2014-09-26T05:00:41Z</time>
            </trkpt>
            <trkpt lon="99.870389" lat="12.742665">
                <ele>228.450000</ele>
                <time>2014-09-26T05:00:58Z</time>
            </trkpt>
            <trkpt lon="99.870683" lat="12.743641">
                <ele>237.580000</ele>
                <time>2014-09-26T05:01:40Z</time>
            </trkpt>
            <trkpt lon="99.871688" lat="12.744901">
                <ele>246.720000</ele>
                <time>2014-09-26T05:02:55Z</time>
            </trkpt>
            <trkpt lon="99.872053" lat="12.745082">
                <ele>245.270000</ele>
                <time>2014-09-26T05:03:09Z</time>
            </trkpt>
            <trkpt lon="99.872461" lat="12.745236">
                <ele>247.680000</ele>
                <time>2014-09-26T05:13:31Z</time>
            </trkpt>
            <trkpt lon="99.872710" lat="12.745393">
                <ele>246.230000</ele>
                <time>2014-09-26T05:13:45Z</time>
            </trkpt>
            <trkpt lon="99.873089" lat="12.745754">
                <ele>243.830000</ele>
                <time>2014-09-26T05:13:55Z</time>
            </trkpt>
            <trkpt lon="99.873918" lat="12.747314">
                <ele>253.440000</ele>
                <time>2014-09-26T05:15:23Z</time>
            </trkpt>
            <trkpt lon="99.874099" lat="12.747905">
                <ele>252.960000</ele>
                <time>2014-09-26T05:15:45Z</time>
            </trkpt>
            <trkpt lon="99.874376" lat="12.748007">
                <ele>253.440000</ele>
                <time>2014-09-26T05:15:54Z</time>
            </trkpt>
            <trkpt lon="99.874612" lat="12.748328">
                <ele>257.290000</ele>
                <time>2014-09-26T05:16:18Z</time>
            </trkpt>
            <trkpt lon="99.874783" lat="12.748536">
                <ele>257.290000</ele>
                <time>2014-09-26T05:16:56Z</time>
            </trkpt>
            <trkpt lon="99.874654" lat="12.748996">
                <ele>260.650000</ele>
                <time>2014-09-26T05:19:12Z</time>
            </trkpt>
            <trkpt lon="99.875218" lat="12.749765">
                <ele>264.500000</ele>
                <time>2014-09-26T05:20:05Z</time>
            </trkpt>
            <trkpt lon="99.875350" lat="12.750867">
                <ele>271.230000</ele>
                <time>2014-09-26T05:21:08Z</time>
            </trkpt>
            <trkpt lon="99.875457" lat="12.750985">
                <ele>271.710000</ele>
                <time>2014-09-26T05:21:21Z</time>
            </trkpt>
            <trkpt lon="99.875772" lat="12.751311">
                <ele>270.270000</ele>
                <time>2014-09-26T05:21:39Z</time>
            </trkpt>
            <trkpt lon="99.875938" lat="12.751906">
                <ele>275.560000</ele>
                <time>2014-09-26T05:22:15Z</time>
            </trkpt>
            <trkpt lon="99.876762" lat="12.751724">
                <ele>275.560000</ele>
                <time>2014-09-26T05:23:22Z</time>
            </trkpt>
            <trkpt lon="99.877135" lat="12.751925">
                <ele>279.400000</ele>
                <time>2014-09-26T05:24:45Z</time>
            </trkpt>
            <trkpt lon="99.877299" lat="12.752017">
                <ele>279.880000</ele>
                <time>2014-09-26T05:24:58Z</time>
            </trkpt>
            <trkpt lon="99.878971" lat="12.752168">
                <ele>272.190000</ele>
                <time>2014-09-26T05:26:10Z</time>
            </trkpt>
            <trkpt lon="99.879557" lat="12.752410">
                <ele>276.040000</ele>
                <time>2014-09-26T05:26:52Z</time>
            </trkpt>
            <trkpt lon="99.880003" lat="12.752688">
                <ele>272.670000</ele>
                <time>2014-09-26T05:28:27Z</time>
            </trkpt>
            <trkpt lon="99.880363" lat="12.753659">
                <ele>259.210000</ele>
                <time>2014-09-26T05:37:24Z</time>
            </trkpt>
            <trkpt lon="99.881148" lat="12.753985">
                <ele>248.640000</ele>
                <time>2014-09-26T05:38:08Z</time>
            </trkpt>
            <trkpt lon="99.881291" lat="12.754333">
                <ele>240.470000</ele>
                <time>2014-09-26T05:39:55Z</time>
            </trkpt>
            <trkpt lon="99.881405" lat="12.754379">
                <ele>236.620000</ele>
                <time>2014-09-26T05:41:57Z</time>
            </trkpt>
            <trkpt lon="99.881474" lat="12.754444">
                <ele>232.300000</ele>
                <time>2014-09-26T05:42:03Z</time>
            </trkpt>
            <trkpt lon="99.881841" lat="12.754913">
                <ele>222.200000</ele>
                <time>2014-09-26T05:42:47Z</time>
            </trkpt>
            <trkpt lon="99.882173" lat="12.755385">
                <ele>214.990000</ele>
                <time>2014-09-26T05:47:59Z</time>
            </trkpt>
            <trkpt lon="99.882290" lat="12.755457">
                <ele>212.110000</ele>
                <time>2014-09-26T05:48:05Z</time>
            </trkpt>
            <trkpt lon="99.882459" lat="12.755609">
                <ele>208.740000</ele>
                <time>2014-09-26T05:48:21Z</time>
            </trkpt>
            <trkpt lon="99.882968" lat="12.755903">
                <ele>202.980000</ele>
                <time>2014-09-26T05:48:43Z</time>
            </trkpt>
            <trkpt lon="99.883547" lat="12.756388">
                <ele>180.870000</ele>
                <time>2014-09-26T05:49:21Z</time>
            </trkpt>
            <trkpt lon="99.884309" lat="12.756466">
                <ele>161.640000</ele>
                <time>2014-09-26T05:50:44Z</time>
            </trkpt>
            <trkpt lon="99.884500" lat="12.756305">
                <ele>155.390000</ele>
                <time>2014-09-26T05:56:22Z</time>
            </trkpt>
            <trkpt lon="99.884848" lat="12.756251">
                <ele>140.970000</ele>
                <time>2014-09-26T05:56:48Z</time>
            </trkpt>
            <trkpt lon="99.885286" lat="12.756574">
                <ele>127.510000</ele>
                <time>2014-09-26T05:59:46Z</time>
            </trkpt>
            <trkpt lon="99.885418" lat="12.756770">
                <ele>125.590000</ele>
                <time>2014-09-26T05:59:53Z</time>
            </trkpt>
            <trkpt lon="99.885704" lat="12.756903">
                <ele>122.220000</ele>
                <time>2014-09-26T06:00:15Z</time>
            </trkpt>
            <trkpt lon="99.885898" lat="12.757035">
                <ele>118.860000</ele>
                <time>2014-09-26T06:00:33Z</time>
            </trkpt>
            <trkpt lon="99.886544" lat="12.757055">
                <ele>111.650000</ele>
                <time>2014-09-26T06:01:05Z</time>
            </trkpt>
            <trkpt lon="99.886474" lat="12.757148">
                <ele>110.690000</ele>
                <time>2014-09-26T06:02:26Z</time>
            </trkpt>
            <trkpt lon="99.886647" lat="12.757338">
                <ele>108.770000</ele>
                <time>2014-09-26T06:02:36Z</time>
            </trkpt>
            <trkpt lon="99.886906" lat="12.757451">
                <ele>104.440000</ele>
                <time>2014-09-26T06:02:45Z</time>
            </trkpt>
            <trkpt lon="99.887009" lat="12.757728">
                <ele>103.000000</ele>
                <time>2014-09-26T06:02:55Z</time>
            </trkpt>
            <trkpt lon="99.887442" lat="12.758077">
                <ele>100.600000</ele>
                <time>2014-09-26T06:03:54Z</time>
            </trkpt>
            <trkpt lon="99.887803" lat="12.758526">
                <ele>96.750000</ele>
                <time>2014-09-26T06:04:08Z</time>
            </trkpt>
            <trkpt lon="99.889227" lat="12.759789">
                <ele>89.060000</ele>
                <time>2014-09-26T06:05:31Z</time>
            </trkpt>
            <trkpt lon="99.889301" lat="12.760079">
                <ele>88.580000</ele>
                <time>2014-09-26T06:05:53Z</time>
            </trkpt>
            <trkpt lon="99.890166" lat="12.760720">
                <ele>78.970000</ele>
                <time>2014-09-26T06:06:36Z</time>
            </trkpt>
            <trkpt lon="99.890559" lat="12.760546">
                <ele>77.040000</ele>
                <time>2014-09-26T06:06:59Z</time>
            </trkpt>
            <trkpt lon="99.890704" lat="12.760452">
                <ele>75.600000</ele>
                <time>2014-09-26T06:07:05Z</time>
            </trkpt>
            <trkpt lon="99.890831" lat="12.760329">
                <ele>73.680000</ele>
                <time>2014-09-26T06:07:44Z</time>
            </trkpt>
            <trkpt lon="99.891430" lat="12.760398">
                <ele>71.760000</ele>
                <time>2014-09-26T06:10:14Z</time>
            </trkpt>
            <trkpt lon="99.891901" lat="12.759441">
                <ele>77.520000</ele>
                <time>2014-09-26T06:11:05Z</time>
            </trkpt>
            <trkpt lon="99.891977" lat="12.759458">
                <ele>77.520000</ele>
                <time>2014-09-26T06:11:11Z</time>
            </trkpt>
            <trkpt lon="99.892976" lat="12.759871">
                <ele>73.680000</ele>
                <time>2014-09-26T06:12:42Z</time>
            </trkpt>
            <trkpt lon="99.893701" lat="12.760274">
                <ele>72.720000</ele>
                <time>2014-09-26T06:13:01Z</time>
            </trkpt>
            <trkpt lon="99.894203" lat="12.760717">
                <ele>73.680000</ele>
                <time>2014-09-26T06:13:25Z</time>
            </trkpt>
            <trkpt lon="99.894670" lat="12.761035">
                <ele>69.830000</ele>
                <time>2014-09-26T06:13:52Z</time>
            </trkpt>
            <trkpt lon="99.895567" lat="12.761151">
                <ele>70.790000</ele>
                <time>2014-09-26T06:14:14Z</time>
            </trkpt>
            <trkpt lon="99.896056" lat="12.761446">
                <ele>70.790000</ele>
                <time>2014-09-26T06:14:29Z</time>
            </trkpt>
            <trkpt lon="99.896079" lat="12.761473">
                <ele>70.790000</ele>
                <time>2014-09-26T06:14:31Z</time>
            </trkpt>
            <trkpt lon="99.896108" lat="12.761469">
                <ele>69.350000</ele>
                <time>2014-09-26T06:15:05Z</time>
            </trkpt>
            <trkpt lon="99.892422" lat="12.772794">
                <ele>76.560000</ele>
                <time>2014-09-26T06:40:00Z</time>
            </trkpt>
            <trkpt lon="99.889180" lat="12.771887">
                <ele>81.850000</ele>
                <time>2014-09-26T06:41:23Z</time>
            </trkpt>
            <trkpt lon="99.888292" lat="12.771902">
                <ele>83.290000</ele>
                <time>2014-09-26T06:41:45Z</time>
            </trkpt>
            <trkpt lon="99.887975" lat="12.772206">
                <ele>84.250000</ele>
                <time>2014-09-26T06:41:57Z</time>
            </trkpt>
            <trkpt lon="99.887655" lat="12.772331">
                <ele>85.210000</ele>
                <time>2014-09-26T06:42:08Z</time>
            </trkpt>
            <trkpt lon="99.887398" lat="12.772502">
                <ele>85.690000</ele>
                <time>2014-09-26T06:42:20Z</time>
            </trkpt>
            <trkpt lon="99.887348" lat="12.772510">
                <ele>86.180000</ele>
                <time>2014-09-26T06:42:23Z</time>
            </trkpt>
            <trkpt lon="99.887311" lat="12.772813">
                <ele>85.690000</ele>
                <time>2014-09-26T06:42:34Z</time>
            </trkpt>
            <trkpt lon="99.887543" lat="12.773148">
                <ele>85.690000</ele>
                <time>2014-09-26T06:42:45Z</time>
            </trkpt>
            <trkpt lon="99.887792" lat="12.773378">
                <ele>84.730000</ele>
                <time>2014-09-26T06:42:53Z</time>
            </trkpt>
            <trkpt lon="99.887851" lat="12.773831">
                <ele>79.930000</ele>
                <time>2014-09-26T06:43:07Z</time>
            </trkpt>
            <trkpt lon="99.888063" lat="12.773932">
                <ele>79.450000</ele>
                <time>2014-09-26T06:43:21Z</time>
            </trkpt>
            <trkpt lon="99.888093" lat="12.773997">
                <ele>79.450000</ele>
                <time>2014-09-26T06:43:23Z</time>
            </trkpt>
            <trkpt lon="99.888511" lat="12.776724">
                <ele>83.770000</ele>
                <time>2014-09-26T06:44:32Z</time>
            </trkpt>
            <trkpt lon="99.888683" lat="12.776790">
                <ele>84.250000</ele>
                <time>2014-09-26T06:44:40Z</time>
            </trkpt>
            <trkpt lon="99.889002" lat="12.776892">
                <ele>81.850000</ele>
                <time>2014-09-26T06:44:48Z</time>
            </trkpt>
            <trkpt lon="99.889517" lat="12.776860">
                <ele>81.370000</ele>
                <time>2014-09-26T06:44:58Z</time>
            </trkpt>
            <trkpt lon="99.889610" lat="12.776939">
                <ele>79.930000</ele>
                <time>2014-09-26T06:45:00Z</time>
            </trkpt>
            <trkpt lon="99.889685" lat="12.777072">
                <ele>77.040000</ele>
                <time>2014-09-26T06:45:02Z</time>
            </trkpt>
            <trkpt lon="99.889730" lat="12.777233">
                <ele>75.120000</ele>
                <time>2014-09-26T06:45:04Z</time>
            </trkpt>
            <trkpt lon="99.889892" lat="12.777899">
                <ele>76.080000</ele>
                <time>2014-09-26T06:45:15Z</time>
            </trkpt>
            <trkpt lon="99.890047" lat="12.777925">
                <ele>76.080000</ele>
                <time>2014-09-26T06:45:30Z</time>
            </trkpt>
            <trkpt lon="99.890753" lat="12.778126">
                <ele>74.640000</ele>
                <time>2014-09-26T06:45:48Z</time>
            </trkpt>
            <trkpt lon="99.893205" lat="12.777910">
                <ele>73.200000</ele>
                <time>2014-09-26T06:46:38Z</time>
            </trkpt>
            <trkpt lon="99.894500" lat="12.777620">
                <ele>69.830000</ele>
                <time>2014-09-26T06:47:03Z</time>
            </trkpt>
            <trkpt lon="99.897291" lat="12.778067">
                <ele>65.510000</ele>
                <time>2014-09-26T06:47:57Z</time>
            </trkpt>
            <trkpt lon="99.897364" lat="12.778112">
                <ele>65.510000</ele>
                <time>2014-09-26T06:47:59Z</time>
            </trkpt>
            <trkpt lon="99.897737" lat="12.778248">
                <ele>65.510000</ele>
                <time>2014-09-26T06:48:22Z</time>
            </trkpt>
            <trkpt lon="99.898431" lat="12.777712">
                <ele>63.580000</ele>
                <time>2014-09-26T06:48:45Z</time>
            </trkpt>
            <trkpt lon="99.899718" lat="12.777291">
                <ele>61.660000</ele>
                <time>2014-09-26T06:49:21Z</time>
            </trkpt>
            <trkpt lon="99.900064" lat="12.776339">
                <ele>64.550000</ele>
                <time>2014-09-26T06:49:50Z</time>
            </trkpt>
            <trkpt lon="99.900993" lat="12.773565">
                <ele>63.100000</ele>
                <time>2014-09-26T06:50:59Z</time>
            </trkpt>
            <trkpt lon="99.901091" lat="12.773350">
                <ele>61.180000</ele>
                <time>2014-09-26T06:51:04Z</time>
            </trkpt>
            <trkpt lon="99.902437" lat="12.769470">
                <ele>59.260000</ele>
                <time>2014-09-26T07:00:34Z</time>
            </trkpt>
            <trkpt lon="99.903218" lat="12.769732">
                <ele>56.860000</ele>
                <time>2014-09-26T07:06:37Z</time>
            </trkpt>
            <trkpt lon="99.904280" lat="12.766050">
                <ele>58.300000</ele>
                <time>2014-09-26T07:08:10Z</time>
            </trkpt>
            <trkpt lon="99.904284" lat="12.765903">
                <ele>55.410000</ele>
                <time>2014-09-26T07:08:13Z</time>
            </trkpt>
            <trkpt lon="99.904665" lat="12.765365">
                <ele>54.450000</ele>
                <time>2014-09-26T07:08:29Z</time>
            </trkpt>
            <trkpt lon="99.905205" lat="12.765550">
                <ele>54.450000</ele>
                <time>2014-09-26T07:08:48Z</time>
            </trkpt>
            <trkpt lon="99.905871" lat="12.765428">
                <ele>56.860000</ele>
                <time>2014-09-26T07:09:11Z</time>
            </trkpt>
            <trkpt lon="99.905953" lat="12.765380">
                <ele>59.740000</ele>
                <time>2014-09-26T07:09:26Z</time>
            </trkpt>
            <trkpt lon="99.907032" lat="12.763371">
                <ele>58.780000</ele>
                <time>2014-09-26T07:10:31Z</time>
            </trkpt>
            <trkpt lon="99.906931" lat="12.762791">
                <ele>59.260000</ele>
                <time>2014-09-26T07:10:45Z</time>
            </trkpt>
            <trkpt lon="99.906587" lat="12.762388">
                <ele>59.260000</ele>
                <time>2014-09-26T07:10:57Z</time>
            </trkpt>
            <trkpt lon="99.903956" lat="12.761493">
                <ele>59.260000</ele>
                <time>2014-09-26T07:11:55Z</time>
            </trkpt>
            <trkpt lon="99.899952" lat="12.760248">
                <ele>62.620000</ele>
                <time>2014-09-26T07:13:25Z</time>
            </trkpt>
            <trkpt lon="99.896791" lat="12.759281">
                <ele>72.720000</ele>
                <time>2014-09-26T07:32:26Z</time>
            </trkpt>
            <trkpt lon="99.896810" lat="12.759229">
                <ele>72.240000</ele>
                <time>2014-09-26T07:32:27Z</time>
            </trkpt>
            <trkpt lon="99.896906" lat="12.758817">
                <ele>71.270000</ele>
                <time>2014-09-26T07:32:36Z</time>
            </trkpt>
            <trkpt lon="99.896174" lat="12.758206">
                <ele>77.520000</ele>
                <time>2014-09-26T07:33:29Z</time>
            </trkpt>
            <trkpt lon="99.896006" lat="12.757836">
                <ele>78.970000</ele>
                <time>2014-09-26T07:33:42Z</time>
            </trkpt>
            <trkpt lon="99.895547" lat="12.756490">
                <ele>80.410000</ele>
                <time>2014-09-26T07:34:34Z</time>
            </trkpt>
            <trkpt lon="99.895454" lat="12.756062">
                <ele>80.890000</ele>
                <time>2014-09-26T07:34:46Z</time>
            </trkpt>
            <trkpt lon="99.895394" lat="12.755356">
                <ele>76.560000</ele>
                <time>2014-09-26T07:35:04Z</time>
            </trkpt>
            <trkpt lon="99.895483" lat="12.755072">
                <ele>78.000000</ele>
                <time>2014-09-26T07:35:18Z</time>
            </trkpt>
            <trkpt lon="99.895730" lat="12.754908">
                <ele>78.970000</ele>
                <time>2014-09-26T07:35:41Z</time>
            </trkpt>
            <trkpt lon="99.895817" lat="12.754702">
                <ele>78.970000</ele>
                <time>2014-09-26T07:35:56Z</time>
            </trkpt>
            <trkpt lon="99.894946" lat="12.754290">
                <ele>83.770000</ele>
                <time>2014-09-26T07:36:36Z</time>
            </trkpt>
            <trkpt lon="99.894738" lat="12.754073">
                <ele>86.180000</ele>
                <time>2014-09-26T07:36:48Z</time>
            </trkpt>
            <trkpt lon="99.894008" lat="12.753141">
                <ele>89.540000</ele>
                <time>2014-09-26T07:37:31Z</time>
            </trkpt>
            <trkpt lon="99.893827" lat="12.753050">
                <ele>91.460000</ele>
                <time>2014-09-26T07:37:43Z</time>
            </trkpt>
            <trkpt lon="99.893774" lat="12.752770">
                <ele>93.870000</ele>
                <time>2014-09-26T07:37:59Z</time>
            </trkpt>
            <trkpt lon="99.893734" lat="12.752623">
                <ele>96.270000</ele>
                <time>2014-09-26T07:38:22Z</time>
            </trkpt>
            <trkpt lon="99.893674" lat="12.752351">
                <ele>98.190000</ele>
                <time>2014-09-26T07:38:59Z</time>
            </trkpt>
            <trkpt lon="99.893705" lat="12.751857">
                <ele>98.190000</ele>
                <time>2014-09-26T07:39:42Z</time>
            </trkpt>
            <trkpt lon="99.893450" lat="12.751564">
                <ele>93.870000</ele>
                <time>2014-09-26T07:40:57Z</time>
            </trkpt>
            <trkpt lon="99.893238" lat="12.751062">
                <ele>97.230000</ele>
                <time>2014-09-26T07:42:51Z</time>
            </trkpt>
            <trkpt lon="99.893234" lat="12.750746">
                <ele>98.670000</ele>
                <time>2014-09-26T07:43:12Z</time>
            </trkpt>
            <trkpt lon="99.893527" lat="12.750742">
                <ele>100.600000</ele>
                <time>2014-09-26T07:44:03Z</time>
            </trkpt>
            <trkpt lon="99.893988" lat="12.751182">
                <ele>95.790000</ele>
                <time>2014-09-26T07:45:42Z</time>
            </trkpt>
            <trkpt lon="99.894266" lat="12.751190">
                <ele>94.830000</ele>
                <time>2014-09-26T07:45:53Z</time>
            </trkpt>
            <trkpt lon="99.895124" lat="12.751309">
                <ele>90.500000</ele>
                <time>2014-09-26T07:47:03Z</time>
            </trkpt>
            <trkpt lon="99.896004" lat="12.751811">
                <ele>91.940000</ele>
                <time>2014-09-26T07:48:54Z</time>
            </trkpt>
            <trkpt lon="99.896629" lat="12.751994">
                <ele>84.730000</ele>
                <time>2014-09-26T07:49:34Z</time>
            </trkpt>
            <trkpt lon="99.897062" lat="12.752342">
                <ele>79.930000</ele>
                <time>2014-09-26T07:49:56Z</time>
            </trkpt>
            <trkpt lon="99.897318" lat="12.752130">
                <ele>83.770000</ele>
                <time>2014-09-26T07:50:18Z</time>
            </trkpt>
            <trkpt lon="99.897624" lat="12.752005">
                <ele>82.810000</ele>
                <time>2014-09-26T07:50:33Z</time>
            </trkpt>
            <trkpt lon="99.899024" lat="12.752319">
                <ele>78.970000</ele>
                <time>2014-09-26T07:51:06Z</time>
            </trkpt>
            <trkpt lon="99.899551" lat="12.752247">
                <ele>76.080000</ele>
                <time>2014-09-26T07:51:47Z</time>
            </trkpt>
            <trkpt lon="99.900318" lat="12.752887">
                <ele>77.520000</ele>
                <time>2014-09-26T07:52:24Z</time>
            </trkpt>
            <trkpt lon="99.900934" lat="12.753387">
                <ele>75.120000</ele>
                <time>2014-09-26T07:52:45Z</time>
            </trkpt>
            <trkpt lon="99.901170" lat="12.753574">
                <ele>74.640000</ele>
                <time>2014-09-26T07:52:52Z</time>
            </trkpt>
            <trkpt lon="99.902214" lat="12.753916">
                <ele>72.720000</ele>
                <time>2014-09-26T07:53:17Z</time>
            </trkpt>
            <trkpt lon="99.902525" lat="12.753860">
                <ele>70.790000</ele>
                <time>2014-09-26T07:53:23Z</time>
            </trkpt>
            <trkpt lon="99.902623" lat="12.753787">
                <ele>69.350000</ele>
                <time>2014-09-26T07:53:25Z</time>
            </trkpt>
            <trkpt lon="99.903027" lat="12.753278">
                <ele>65.990000</ele>
                <time>2014-09-26T07:53:34Z</time>
            </trkpt>
            <trkpt lon="99.903384" lat="12.752952">
                <ele>67.430000</ele>
                <time>2014-09-26T07:53:44Z</time>
            </trkpt>
            <trkpt lon="99.903886" lat="12.752729">
                <ele>67.430000</ele>
                <time>2014-09-26T07:53:59Z</time>
            </trkpt>
            <trkpt lon="99.904267" lat="12.752830">
                <ele>65.990000</ele>
                <time>2014-09-26T07:54:30Z</time>
            </trkpt>
            <trkpt lon="99.904290" lat="12.752873">
                <ele>63.580000</ele>
                <time>2014-09-26T07:56:12Z</time>
            </trkpt>
            <trkpt lon="99.904384" lat="12.752524">
                <ele>66.950000</ele>
                <time>2014-09-26T07:57:56Z</time>
            </trkpt>
            <trkpt lon="99.904814" lat="12.752368">
                <ele>66.950000</ele>
                <time>2014-09-26T07:58:10Z</time>
            </trkpt>
            <trkpt lon="99.905389" lat="12.752099">
                <ele>65.510000</ele>
                <time>2014-09-26T07:58:25Z</time>
            </trkpt>
            <trkpt lon="99.906955" lat="12.749579">
                <ele>65.990000</ele>
                <time>2014-09-26T08:00:06Z</time>
            </trkpt>
            <trkpt lon="99.906650" lat="12.748777">
                <ele>66.470000</ele>
                <time>2014-09-26T08:00:34Z</time>
            </trkpt>
            <trkpt lon="99.905892" lat="12.747495">
                <ele>65.030000</ele>
                <time>2014-09-26T08:01:05Z</time>
            </trkpt>
            <trkpt lon="99.905803" lat="12.747046">
                <ele>64.070000</ele>
                <time>2014-09-26T08:01:15Z</time>
            </trkpt>
            <trkpt lon="99.906355" lat="12.744875">
                <ele>66.470000</ele>
                <time>2014-09-26T08:02:12Z</time>
            </trkpt>
            <trkpt lon="99.906390" lat="12.744790">
                <ele>65.030000</ele>
                <time>2014-09-26T08:02:14Z</time>
            </trkpt>
            <trkpt lon="99.907116" lat="12.742293">
                <ele>65.990000</ele>
                <time>2014-09-26T08:03:17Z</time>
            </trkpt>
            <trkpt lon="99.907246" lat="12.741613">
                <ele>62.140000</ele>
                <time>2014-09-26T08:03:29Z</time>
            </trkpt>
            <trkpt lon="99.907360" lat="12.740169">
                <ele>60.700000</ele>
                <time>2014-09-26T08:04:01Z</time>
            </trkpt>
            <trkpt lon="99.907174" lat="12.739621">
                <ele>64.550000</ele>
                <time>2014-09-26T08:04:24Z</time>
            </trkpt>
            <trkpt lon="99.906749" lat="12.738350">
                <ele>65.510000</ele>
                <time>2014-09-26T08:05:02Z</time>
            </trkpt>
            <trkpt lon="99.906572" lat="12.737586">
                <ele>63.580000</ele>
                <time>2014-09-26T08:05:20Z</time>
            </trkpt>
            <trkpt lon="99.906552" lat="12.737483">
                <ele>62.140000</ele>
                <time>2014-09-26T08:05:22Z</time>
            </trkpt>
            <trkpt lon="99.906501" lat="12.737171">
                <ele>61.660000</ele>
                <time>2014-09-26T08:06:04Z</time>
            </trkpt>
            <trkpt lon="99.905354" lat="12.735026">
                <ele>64.070000</ele>
                <time>2014-09-26T08:07:19Z</time>
            </trkpt>
            <trkpt lon="99.905041" lat="12.734958">
                <ele>66.470000</ele>
                <time>2014-09-26T08:07:32Z</time>
            </trkpt>
            <trkpt lon="99.904529" lat="12.734690">
                <ele>66.470000</ele>
                <time>2014-09-26T08:07:48Z</time>
            </trkpt>
            <trkpt lon="99.903953" lat="12.734284">
                <ele>68.390000</ele>
                <time>2014-09-26T08:08:08Z</time>
            </trkpt>
            <trkpt lon="99.903276" lat="12.733316">
                <ele>68.390000</ele>
                <time>2014-09-26T08:08:39Z</time>
            </trkpt>
            <trkpt lon="99.903116" lat="12.733105">
                <ele>68.390000</ele>
                <time>2014-09-26T08:08:45Z</time>
            </trkpt>
            <trkpt lon="99.902932" lat="12.732965">
                <ele>66.950000</ele>
                <time>2014-09-26T08:08:50Z</time>
            </trkpt>
            <trkpt lon="99.902121" lat="12.732674">
                <ele>67.430000</ele>
                <time>2014-09-26T08:09:16Z</time>
            </trkpt>
            <trkpt lon="99.902007" lat="12.732768">
                <ele>67.430000</ele>
                <time>2014-09-26T08:11:14Z</time>
            </trkpt>
            <trkpt lon="99.901496" lat="12.732645">
                <ele>65.510000</ele>
                <time>2014-09-26T08:11:34Z</time>
            </trkpt>
            <trkpt lon="99.900760" lat="12.732155">
                <ele>71.760000</ele>
                <time>2014-09-26T08:12:58Z</time>
            </trkpt>
            <trkpt lon="99.900635" lat="12.732060">
                <ele>72.720000</ele>
                <time>2014-09-26T08:13:07Z</time>
            </trkpt>
            <trkpt lon="99.901388" lat="12.730993">
                <ele>66.950000</ele>
                <time>2014-09-26T08:13:41Z</time>
            </trkpt>
            <trkpt lon="99.901763" lat="12.730566">
                <ele>63.100000</ele>
                <time>2014-09-26T08:13:54Z</time>
            </trkpt>
            <trkpt lon="99.901976" lat="12.730103">
                <ele>60.700000</ele>
                <time>2014-09-26T08:14:04Z</time>
            </trkpt>
            <trkpt lon="99.901966" lat="12.729990">
                <ele>59.260000</ele>
                <time>2014-09-26T08:14:07Z</time>
            </trkpt>
            <trkpt lon="99.901227" lat="12.729948">
                <ele>58.780000</ele>
                <time>2014-09-26T08:14:26Z</time>
            </trkpt>
            <trkpt lon="99.900028" lat="12.729533">
                <ele>58.300000</ele>
                <time>2014-09-26T08:14:56Z</time>
            </trkpt>
            <trkpt lon="99.897861" lat="12.727879">
                <ele>60.220000</ele>
                <time>2014-09-26T08:16:02Z</time>
            </trkpt>
            <trkpt lon="99.897406" lat="12.727492">
                <ele>58.780000</ele>
                <time>2014-09-26T08:16:15Z</time>
            </trkpt>
            <trkpt lon="99.896942" lat="12.726890">
                <ele>58.780000</ele>
                <time>2014-09-26T08:16:32Z</time>
            </trkpt>
            <trkpt lon="99.896564" lat="12.726045">
                <ele>60.220000</ele>
                <time>2014-09-26T08:16:52Z</time>
            </trkpt>
            <trkpt lon="99.896260" lat="12.725313">
                <ele>58.780000</ele>
                <time>2014-09-26T08:17:10Z</time>
            </trkpt>
            <trkpt lon="99.896018" lat="12.723875">
                <ele>59.740000</ele>
                <time>2014-09-26T08:17:44Z</time>
            </trkpt>
            <trkpt lon="99.895951" lat="12.723775">
                <ele>59.740000</ele>
                <time>2014-09-26T08:17:47Z</time>
            </trkpt>
            <trkpt lon="99.892096" lat="12.722919">
                <ele>61.660000</ele>
                <time>2014-09-26T08:19:19Z</time>
            </trkpt>
            <trkpt lon="99.891601" lat="12.722603">
                <ele>62.140000</ele>
                <time>2014-09-26T08:19:33Z</time>
            </trkpt>
            <trkpt lon="99.891429" lat="12.722407">
                <ele>62.140000</ele>
                <time>2014-09-26T08:19:39Z</time>
            </trkpt>
            <trkpt lon="99.890770" lat="12.720436">
                <ele>64.070000</ele>
                <time>2014-09-26T08:20:47Z</time>
            </trkpt>
            <trkpt lon="99.890497" lat="12.719697">
                <ele>62.620000</ele>
                <time>2014-09-26T08:21:07Z</time>
            </trkpt>
            <trkpt lon="99.890746" lat="12.719559">
                <ele>61.660000</ele>
                <time>2014-09-26T08:21:13Z</time>
            </trkpt>
            <trkpt lon="99.891426" lat="12.718492">
                <ele>60.700000</ele>
                <time>2014-09-26T08:21:38Z</time>
            </trkpt>
            <trkpt lon="99.891470" lat="12.717098">
                <ele>76.560000</ele>
                <time>2014-09-26T08:22:35Z</time>
            </trkpt>
            <trkpt lon="99.891573" lat="12.716900">
                <ele>77.040000</ele>
                <time>2014-09-26T08:22:46Z</time>
            </trkpt>
            <trkpt lon="99.891520" lat="12.716709">
                <ele>75.600000</ele>
                <time>2014-09-26T08:22:54Z</time>
            </trkpt>
            <trkpt lon="99.891227" lat="12.716541">
                <ele>70.790000</ele>
                <time>2014-09-26T08:23:00Z</time>
            </trkpt>
            <trkpt lon="99.890990" lat="12.716364">
                <ele>67.910000</ele>
                <time>2014-09-26T08:23:04Z</time>
            </trkpt>
            <trkpt lon="99.891100" lat="12.715772">
                <ele>67.430000</ele>
                <time>2014-09-26T08:23:13Z</time>
            </trkpt>
            <trkpt lon="99.892056" lat="12.714725">
                <ele>72.240000</ele>
                <time>2014-09-26T08:23:52Z</time>
            </trkpt>
            <trkpt lon="99.892217" lat="12.714394">
                <ele>73.680000</ele>
                <time>2014-09-26T08:24:05Z</time>
            </trkpt>
            <trkpt lon="99.892540" lat="12.713001">
                <ele>74.640000</ele>
                <time>2014-09-26T08:24:42Z</time>
            </trkpt>
            <trkpt lon="99.893224" lat="12.712666">
                <ele>79.930000</ele>
                <time>2014-09-26T08:25:08Z</time>
            </trkpt>
            <trkpt lon="99.893465" lat="12.712272">
                <ele>81.370000</ele>
                <time>2014-09-26T08:25:26Z</time>
            </trkpt>
            <trkpt lon="99.893276" lat="12.712103">
                <ele>81.850000</ele>
                <time>2014-09-26T08:25:37Z</time>
            </trkpt>
            <trkpt lon="99.892707" lat="12.711803">
                <ele>79.450000</ele>
                <time>2014-09-26T08:25:52Z</time>
            </trkpt>
            <trkpt lon="99.892719" lat="12.711702">
                <ele>79.450000</ele>
                <time>2014-09-26T08:25:55Z</time>
            </trkpt>
            <trkpt lon="99.892713" lat="12.711127">
                <ele>78.970000</ele>
                <time>2014-09-26T08:26:09Z</time>
            </trkpt>
            <trkpt lon="99.893179" lat="12.709074">
                <ele>85.690000</ele>
                <time>2014-09-26T08:27:07Z</time>
            </trkpt>
            <trkpt lon="99.893023" lat="12.708661">
                <ele>87.140000</ele>
                <time>2014-09-26T08:27:22Z</time>
            </trkpt>
            <trkpt lon="99.892431" lat="12.708324">
                <ele>84.730000</ele>
                <time>2014-09-26T08:27:36Z</time>
            </trkpt>
            <trkpt lon="99.892246" lat="12.708009">
                <ele>84.730000</ele>
                <time>2014-09-26T08:27:45Z</time>
            </trkpt>
            <trkpt lon="99.892156" lat="12.707342">
                <ele>82.330000</ele>
                <time>2014-09-26T08:27:59Z</time>
            </trkpt>
            <trkpt lon="99.892331" lat="12.706380">
                <ele>80.410000</ele>
                <time>2014-09-26T08:28:16Z</time>
            </trkpt>
            <trkpt lon="99.892313" lat="12.706264">
                <ele>80.410000</ele>
                <time>2014-09-26T08:28:18Z</time>
            </trkpt>
            <trkpt lon="99.892184" lat="12.706185">
                <ele>78.970000</ele>
                <time>2014-09-26T08:28:21Z</time>
            </trkpt>
            <trkpt lon="99.890753" lat="12.706044">
                <ele>79.930000</ele>
                <time>2014-09-26T08:28:46Z</time>
            </trkpt>
            <trkpt lon="99.890337" lat="12.705806">
                <ele>79.930000</ele>
                <time>2014-09-26T08:28:56Z</time>
            </trkpt>
            <trkpt lon="99.890264" lat="12.705761">
                <ele>79.930000</ele>
                <time>2014-09-26T08:28:58Z</time>
            </trkpt>
            <trkpt lon="99.890096" lat="12.705723">
                <ele>79.930000</ele>
                <time>2014-09-26T08:29:02Z</time>
            </trkpt>
            <trkpt lon="99.889769" lat="12.705716">
                <ele>79.930000</ele>
                <time>2014-09-26T08:29:09Z</time>
            </trkpt>
            <trkpt lon="99.889656" lat="12.705927">
                <ele>80.410000</ele>
                <time>2014-09-26T08:29:16Z</time>
            </trkpt>
            <trkpt lon="99.889532" lat="12.705959">
                <ele>81.370000</ele>
                <time>2014-09-26T08:31:15Z</time>
            </trkpt>
        </trkseg>
    </trk>
</gpx>